Island City, Indiana
Current Conditions -  °F | °C
As of 8:35 PM on Wednesday 26 Nov 2014 (Local Time) from KDCY Reporting Station
Overcast Overcast  
Wind Chill: -1°   Ceiling: 5000
Heat Index:   Visibility: 10mi
Dew Point: -1°   Wind: 6mph
Humidity: 82%   Direction: 260°W
Pressure: 30.06"   Gusts: NA
Location:  39.0608°N, 87.1852°W
Report Text: KDCY 270135Z AUTO 26005KT 10SM OVC050 02/M01 A3006 RMK AO2 T00181010
Loading
Personal Weather Stations






























Interactive Weather Map New forecast layout! Learn more

10-Day Weather Forecast

Advertisements
Track Severe Weather on mobile